sensor_id;sensor_type;location;lat;lon;timestamp;P1;durP1;ratioP1;P2;durP2;ratioP2
55330;SDS011;58851;42.984;20.336;2023-12-20T00:00:23;303.83;;;173.15;;
55330;SDS011;58851;42.984;20.336;2023-12-20T00:02:49;266.42;;;161.40;;
55330;SDS011;58851;42.984;20.336;2023-12-20T00:05:15;288.17;;;158.40;;
55330;SDS011;58851;42.984;20.336;2023-12-20T00:07:41;301.98;;;174.27;;
55330;SDS011;58851;42.984;20.336;2023-12-20T00:10:07;273.95;;;155.88;;
55330;SDS011;58851;42.984;20.336;2023-12-20T00:12:33;255.95;;;150.55;;
55330;SDS011;58851;42.984;20.336;2023-12-20T00:14:58;244.73;;;145.63;;
55330;SDS011;58851;42.984;20.336;2023-12-20T00:17:24;382.10;;;193.63;;
55330;SDS011;58851;42.984;20.336;2023-12-20T00:19:50;304.13;;;166.05;;
55330;SDS011;58851;42.984;20.336;2023-12-20T00:22:16;327.00;;;176.95;;
55330;SDS011;58851;42.984;20.336;2023-12-20T00:24:42;293.90;;;167.98;;
55330;SDS011;58851;42.984;20.336;2023-12-20T00:27:07;376.33;;;193.57;;
55330;SDS011;58851;42.984;20.336;2023-12-20T00:29:33;277.70;;;155.02;;
55330;SDS011;58851;42.984;20.336;2023-12-20T00:31:59;345.73;;;177.75;;
55330;SDS011;58851;42.984;20.336;2023-12-20T00:34:25;341.50;;;170.75;;
55330;SDS011;58851;42.984;20.336;2023-12-20T00:36:51;280.30;;;152.20;;
55330;SDS011;58851;42.984;20.336;2023-12-20T00:39:16;270.40;;;151.13;;
55330;SDS011;58851;42.984;20.336;2023-12-20T00:41:42;206.82;;;117.88;;
55330;SDS011;58851;42.984;20.336;2023-12-20T00:44:08;196.07;;;119.47;;
55330;SDS011;58851;42.984;20.336;2023-12-20T00:46:34;213.00;;;118.32;;
55330;SDS011;58851;42.984;20.336;2023-12-20T00:49:00;202.35;;;118.00;;
55330;SDS011;58851;42.984;20.336;2023-12-20T00:51:26;207.82;;;119.03;;
55330;SDS011;58851;42.984;20.336;2023-12-20T00:53:51;231.48;;;127.78;;
55330;SDS011;58851;42.984;20.336;2023-12-20T00:56:20;235.88;;;128.15;;
55330;SDS011;58851;42.984;20.336;2023-12-20T00:58:46;320.10;;;147.00;;
55330;SDS011;58851;42.984;20.336;2023-12-20T01:01:12;250.63;;;131.35;;
55330;SDS011;58851;42.984;20.336;2023-12-20T01:03:38;274.65;;;143.00;;
55330;SDS011;58851;42.984;20.336;2023-12-20T01:06:04;281.30;;;143.38;;
55330;SDS011;58851;42.984;20.336;2023-12-20T01:08:30;318.00;;;149.38;;
55330;SDS011;58851;42.984;20.336;2023-12-20T01:10:56;217.77;;;121.43;;
55330;SDS011;58851;42.984;20.336;2023-12-20T01:13:22;257.10;;;136.70;;
55330;SDS011;58851;42.984;20.336;2023-12-20T01:15:47;305.08;;;158.43;;
55330;SDS011;58851;42.984;20.336;2023-12-20T01:18:13;359.92;;;166.63;;
55330;SDS011;58851;42.984;20.336;2023-12-20T01:20:40;424.42;;;174.73;;
55330;SDS011;58851;42.984;20.336;2023-12-20T01:23:06;337.25;;;160.98;;
55330;SDS011;58851;42.984;20.336;2023-12-20T01:25:31;319.13;;;152.18;;
55330;SDS011;58851;42.984;20.336;2023-12-20T01:27:57;379.48;;;167.65;;
55330;SDS011;58851;42.984;20.336;2023-12-20T01:30:23;373.42;;;161.30;;
55330;SDS011;58851;42.984;20.336;2023-12-20T01:32:49;310.50;;;136.10;;
55330;SDS011;58851;42.984;20.336;2023-12-20T01:35:15;198.35;;;108.57;;
55330;SDS011;58851;42.984;20.336;2023-12-20T01:37:41;252.75;;;120.22;;
55330;SDS011;58851;42.984;20.336;2023-12-20T01:40:06;179.75;;;100.40;;
55330;SDS011;58851;42.984;20.336;2023-12-20T01:42:33;220.32;;;113.78;;
55330;SDS011;58851;42.984;20.336;2023-12-20T01:44:59;184.32;;;100.20;;
55330;SDS011;58851;42.984;20.336;2023-12-20T01:47:24;164.70;;;89.20;;
55330;SDS011;58851;42.984;20.336;2023-12-20T01:49:52;168.95;;;89.38;;
55330;SDS011;58851;42.984;20.336;2023-12-20T01:52:18;165.85;;;89.93;;
55330;SDS011;58851;42.984;20.336;2023-12-20T01:54:45;171.13;;;87.97;;
55330;SDS011;58851;42.984;20.336;2023-12-20T01:57:12;162.80;;;89.80;;
55330;SDS011;58851;42.984;20.336;2023-12-20T01:59:39;163.23;;;85.82;;
55330;SDS011;58851;42.984;20.336;2023-12-20T02:02:05;149.52;;;89.35;;
55330;SDS011;58851;42.984;20.336;2023-12-20T02:04:31;137.48;;;79.05;;
55330;SDS011;58851;42.984;20.336;2023-12-20T02:06:57;178.75;;;94.68;;
55330;SDS011;58851;42.984;20.336;2023-12-20T02:09:24;185.93;;;91.95;;
55330;SDS011;58851;42.984;20.336;2023-12-20T02:11:50;154.77;;;90.88;;
55330;SDS011;58851;42.984;20.336;2023-12-20T02:14:16;188.77;;;94.47;;
55330;SDS011;58851;42.984;20.336;2023-12-20T02:16:42;156.93;;;86.20;;
55330;SDS011;58851;42.984;20.336;2023-12-20T02:19:10;208.32;;;92.75;;
55330;SDS011;58851;42.984;20.336;2023-12-20T02:21:38;190.35;;;100.40;;
55330;SDS011;58851;42.984;20.336;2023-12-20T02:24:04;218.73;;;107.45;;
55330;SDS011;58851;42.984;20.336;2023-12-20T02:26:31;206.13;;;108.90;;
55330;SDS011;58851;42.984;20.336;2023-12-20T02:28:58;279.15;;;132.68;;
55330;SDS011;58851;42.984;20.336;2023-12-20T02:31:25;233.63;;;111.75;;
55330;SDS011;58851;42.984;20.336;2023-12-20T02:33:50;197.32;;;104.80;;
55330;SDS011;58851;42.984;20.336;2023-12-20T02:36:16;163.73;;;88.15;;
55330;SDS011;58851;42.984;20.336;2023-12-20T02:38:42;172.75;;;87.43;;
55330;SDS011;58851;42.984;20.336;2023-12-20T02:41:08;160.63;;;83.38;;
55330;SDS011;58851;42.984;20.336;2023-12-20T02:43:34;156.75;;;80.53;;
55330;SDS011;58851;42.984;20.336;2023-12-20T02:45:59;158.75;;;85.93;;
55330;SDS011;58851;42.984;20.336;2023-12-20T02:48:25;136.57;;;73.85;;
55330;SDS011;58851;42.984;20.336;2023-12-20T02:50:51;126.60;;;75.82;;
55330;SDS011;58851;42.984;20.336;2023-12-20T02:53:17;142.30;;;76.95;;
55330;SDS011;58851;42.984;20.336;2023-12-20T02:55:43;139.10;;;75.88;;
55330;SDS011;58851;42.984;20.336;2023-12-20T02:58:08;172.70;;;81.25;;
55330;SDS011;58851;42.984;20.336;2023-12-20T03:00:34;172.95;;;84.53;;
55330;SDS011;58851;42.984;20.336;2023-12-20T03:03:00;220.27;;;92.72;;
55330;SDS011;58851;42.984;20.336;2023-12-20T03:05:26;168.32;;;88.63;;
55330;SDS011;58851;42.984;20.336;2023-12-20T03:07:51;172.35;;;90.82;;
55330;SDS011;58851;42.984;20.336;2023-12-20T03:10:18;215.73;;;103.72;;
55330;SDS011;58851;42.984;20.336;2023-12-20T03:12:44;245.82;;;110.30;;
55330;SDS011;58851;42.984;20.336;2023-12-20T03:15:10;248.07;;;112.35;;
55330;SDS011;58851;42.984;20.336;2023-12-20T03:17:36;194.85;;;100.07;;
55330;SDS011;58851;42.984;20.336;2023-12-20T03:20:02;155.98;;;86.85;;
55330;SDS011;58851;42.984;20.336;2023-12-20T03:22:28;138.45;;;79.80;;
55330;SDS011;58851;42.984;20.336;2023-12-20T03:24:53;152.15;;;80.90;;
55330;SDS011;58851;42.984;20.336;2023-12-20T03:27:19;133.02;;;79.38;;
55330;SDS011;58851;42.984;20.336;2023-12-20T03:29:45;142.80;;;79.93;;
55330;SDS011;58851;42.984;20.336;2023-12-20T03:32:11;135.90;;;78.85;;
55330;SDS011;58851;42.984;20.336;2023-12-20T03:34:37;147.82;;;80.47;;
55330;SDS011;58851;42.984;20.336;2023-12-20T03:37:03;138.45;;;76.32;;
55330;SDS011;58851;42.984;20.336;2023-12-20T03:39:29;225.85;;;102.38;;
55330;SDS011;58851;42.984;20.336;2023-12-20T03:41:55;202.80;;;94.82;;
55330;SDS011;58851;42.984;20.336;2023-12-20T03:44:20;134.50;;;77.40;;
55330;SDS011;58851;42.984;20.336;2023-12-20T03:46:46;152.52;;;83.82;;
55330;SDS011;58851;42.984;20.336;2023-12-20T03:49:14;153.85;;;84.50;;
55330;SDS011;58851;42.984;20.336;2023-12-20T03:51:39;163.50;;;85.20;;
55330;SDS011;58851;42.984;20.336;2023-12-20T03:54:07;170.68;;;90.35;;
55330;SDS011;58851;42.984;20.336;2023-12-20T03:56:32;146.10;;;85.05;;
55330;SDS011;58851;42.984;20.336;2023-12-20T03:58:58;158.77;;;86.03;;
55330;SDS011;58851;42.984;20.336;2023-12-20T04:01:24;197.45;;;89.50;;
55330;SDS011;58851;42.984;20.336;2023-12-20T04:03:51;148.85;;;79.45;;
55330;SDS011;58851;42.984;20.336;2023-12-20T04:06:17;154.52;;;80.47;;
55330;SDS011;58851;42.984;20.336;2023-12-20T04:08:43;160.85;;;84.22;;
55330;SDS011;58851;42.984;20.336;2023-12-20T04:11:09;155.23;;;79.85;;
55330;SDS011;58851;42.984;20.336;2023-12-20T04:13:35;152.18;;;81.32;;
55330;SDS011;58851;42.984;20.336;2023-12-20T04:16:00;142.20;;;80.88;;
55330;SDS011;58851;42.984;20.336;2023-12-20T04:18:26;144.30;;;85.18;;
55330;SDS011;58851;42.984;20.336;2023-12-20T04:20:53;187.35;;;98.07;;
55330;SDS011;58851;42.984;20.336;2023-12-20T04:23:19;188.32;;;103.35;;
55330;SDS011;58851;42.984;20.336;2023-12-20T04:25:44;185.82;;;100.78;;
55330;SDS011;58851;42.984;20.336;2023-12-20T04:28:10;193.38;;;106.43;;
55330;SDS011;58851;42.984;20.336;2023-12-20T04:30:36;203.07;;;108.63;;
55330;SDS011;58851;42.984;20.336;2023-12-20T04:33:02;169.02;;;95.40;;
55330;SDS011;58851;42.984;20.336;2023-12-20T04:35:28;149.50;;;84.03;;
55330;SDS011;58851;42.984;20.336;2023-12-20T04:37:54;145.40;;;82.80;;
55330;SDS011;58851;42.984;20.336;2023-12-20T04:40:19;164.68;;;89.78;;
55330;SDS011;58851;42.984;20.336;2023-12-20T04:42:45;172.50;;;100.03;;
55330;SDS011;58851;42.984;20.336;2023-12-20T04:45:11;164.27;;;96.68;;
55330;SDS011;58851;42.984;20.336;2023-12-20T04:47:38;154.13;;;92.40;;
55330;SDS011;58851;42.984;20.336;2023-12-20T04:50:04;157.93;;;91.22;;
55330;SDS011;58851;42.984;20.336;2023-12-20T04:52:31;155.73;;;86.68;;
55330;SDS011;58851;42.984;20.336;2023-12-20T04:54:56;155.18;;;85.03;;
55330;SDS011;58851;42.984;20.336;2023-12-20T04:57:22;181.43;;;96.07;;
55330;SDS011;58851;42.984;20.336;2023-12-20T04:59:48;154.00;;;89.82;;
55330;SDS011;58851;42.984;20.336;2023-12-20T05:02:14;169.30;;;88.88;;
55330;SDS011;58851;42.984;20.336;2023-12-20T05:04:39;169.55;;;90.93;;
55330;SDS011;58851;42.984;20.336;2023-12-20T05:07:06;165.98;;;94.78;;
55330;SDS011;58851;42.984;20.336;2023-12-20T05:09:32;169.85;;;93.60;;
55330;SDS011;58851;42.984;20.336;2023-12-20T05:11:58;176.60;;;103.40;;
55330;SDS011;58851;42.984;20.336;2023-12-20T05:14:24;177.65;;;100.78;;
55330;SDS011;58851;42.984;20.336;2023-12-20T05:16:50;177.52;;;104.15;;
55330;SDS011;58851;42.984;20.336;2023-12-20T05:19:16;181.10;;;102.60;;
55330;SDS011;58851;42.984;20.336;2023-12-20T05:21:42;145.63;;;90.10;;
55330;SDS011;58851;42.984;20.336;2023-12-20T05:24:08;159.43;;;91.57;;
55330;SDS011;58851;42.984;20.336;2023-12-20T05:26:33;138.45;;;85.18;;
55330;SDS011;58851;42.984;20.336;2023-12-20T05:29:04;153.23;;;89.65;;
55330;SDS011;58851;42.984;20.336;2023-12-20T05:31:31;133.90;;;86.75;;
55330;SDS011;58851;42.984;20.336;2023-12-20T05:33:57;145.73;;;86.88;;
55330;SDS011;58851;42.984;20.336;2023-12-20T05:36:23;149.35;;;87.85;;
55330;SDS011;58851;42.984;20.336;2023-12-20T05:38:49;145.50;;;92.28;;
55330;SDS011;58851;42.984;20.336;2023-12-20T05:41:15;178.02;;;101.15;;
55330;SDS011;58851;42.984;20.336;2023-12-20T05:43:41;208.75;;;116.55;;
55330;SDS011;58851;42.984;20.336;2023-12-20T05:46:07;196.45;;;114.00;;
55330;SDS011;58851;42.984;20.336;2023-12-20T05:48:34;220.20;;;121.68;;
55330;SDS011;58851;42.984;20.336;2023-12-20T05:51:00;226.57;;;111.63;;
55330;SDS011;58851;42.984;20.336;2023-12-20T05:53:26;236.65;;;120.88;;
55330;SDS011;58851;42.984;20.336;2023-12-20T05:55:52;212.80;;;112.95;;
55330;SDS011;58851;42.984;20.336;2023-12-20T05:58:18;278.42;;;130.75;;
55330;SDS011;58851;42.984;20.336;2023-12-20T06:00:43;235.70;;;118.95;;
55330;SDS011;58851;42.984;20.336;2023-12-20T06:03:09;211.70;;;113.45;;
55330;SDS011;58851;42.984;20.336;2023-12-20T06:05:35;242.98;;;125.88;;
55330;SDS011;58851;42.984;20.336;2023-12-20T06:08:01;271.88;;;131.60;;
55330;SDS011;58851;42.984;20.336;2023-12-20T06:10:28;208.38;;;110.90;;
55330;SDS011;58851;42.984;20.336;2023-12-20T06:12:54;212.77;;;119.15;;
55330;SDS011;58851;42.984;20.336;2023-12-20T06:15:21;235.90;;;128.65;;
55330;SDS011;58851;42.984;20.336;2023-12-20T06:17:47;220.90;;;130.68;;
55330;SDS011;58851;42.984;20.336;2023-12-20T06:20:13;188.57;;;113.82;;
55330;SDS011;58851;42.984;20.336;2023-12-20T06:22:39;177.48;;;107.25;;
55330;SDS011;58851;42.984;20.336;2023-12-20T06:25:05;182.65;;;106.10;;
55330;SDS011;58851;42.984;20.336;2023-12-20T06:27:32;187.02;;;109.47;;
55330;SDS011;58851;42.984;20.336;2023-12-20T06:29:57;224.70;;;128.15;;
55330;SDS011;58851;42.984;20.336;2023-12-20T06:32:24;223.80;;;128.38;;
55330;SDS011;58851;42.984;20.336;2023-12-20T06:34:50;216.02;;;118.38;;
55330;SDS011;58851;42.984;20.336;2023-12-20T06:37:15;225.02;;;128.45;;
55330;SDS011;58851;42.984;20.336;2023-12-20T06:39:41;237.65;;;126.80;;
55330;SDS011;58851;42.984;20.336;2023-12-20T06:42:07;238.70;;;122.28;;
55330;SDS011;58851;42.984;20.336;2023-12-20T06:44:33;222.68;;;120.20;;
55330;SDS011;58851;42.984;20.336;2023-12-20T06:46:59;252.00;;;138.32;;
55330;SDS011;58851;42.984;20.336;2023-12-20T06:49:25;257.65;;;126.25;;
55330;SDS011;58851;42.984;20.336;2023-12-20T06:51:51;221.13;;;121.45;;
55330;SDS011;58851;42.984;20.336;2023-12-20T06:54:16;217.35;;;121.50;;
55330;SDS011;58851;42.984;20.336;2023-12-20T06:56:42;239.50;;;131.85;;
55330;SDS011;58851;42.984;20.336;2023-12-20T06:59:08;244.80;;;129.80;;
55330;SDS011;58851;42.984;20.336;2023-12-20T07:01:34;231.38;;;129.73;;
55330;SDS011;58851;42.984;20.336;2023-12-20T07:04:00;276.13;;;138.75;;
55330;SDS011;58851;42.984;20.336;2023-12-20T07:06:25;236.35;;;130.70;;
55330;SDS011;58851;42.984;20.336;2023-12-20T07:08:52;249.18;;;140.35;;
55330;SDS011;58851;42.984;20.336;2023-12-20T07:11:17;246.95;;;135.70;;
55330;SDS011;58851;42.984;20.336;2023-12-20T07:13:43;259.60;;;140.77;;
55330;SDS011;58851;42.984;20.336;2023-12-20T07:16:09;260.00;;;145.07;;
55330;SDS011;58851;42.984;20.336;2023-12-20T07:18:35;298.27;;;159.27;;
55330;SDS011;58851;42.984;20.336;2023-12-20T07:21:01;267.88;;;147.23;;
55330;SDS011;58851;42.984;20.336;2023-12-20T07:23:27;274.05;;;154.48;;
55330;SDS011;58851;42.984;20.336;2023-12-20T07:25:52;284.70;;;164.63;;
55330;SDS011;58851;42.984;20.336;2023-12-20T07:28:18;268.15;;;153.52;;
55330;SDS011;58851;42.984;20.336;2023-12-20T07:30:44;276.73;;;155.23;;
55330;SDS011;58851;42.984;20.336;2023-12-20T07:33:10;271.65;;;157.52;;
55330;SDS011;58851;42.984;20.336;2023-12-20T07:35:37;269.15;;;155.57;;
55330;SDS011;58851;42.984;20.336;2023-12-20T07:38:03;270.75;;;153.30;;
55330;SDS011;58851;42.984;20.336;2023-12-20T07:40:29;283.05;;;157.43;;
55330;SDS011;58851;42.984;20.336;2023-12-20T07:42:55;302.55;;;168.82;;
55330;SDS011;58851;42.984;20.336;2023-12-20T07:45:21;297.73;;;167.10;;
55330;SDS011;58851;42.984;20.336;2023-12-20T07:47:47;278.88;;;164.60;;
55330;SDS011;58851;42.984;20.336;2023-12-20T07:50:14;273.92;;;166.43;;
55330;SDS011;58851;42.984;20.336;2023-12-20T07:52:39;281.40;;;169.85;;
55330;SDS011;58851;42.984;20.336;2023-12-20T07:55:05;291.38;;;181.80;;
55330;SDS011;58851;42.984;20.336;2023-12-20T07:57:32;295.90;;;175.90;;
55330;SDS011;58851;42.984;20.336;2023-12-20T07:59:57;317.25;;;195.32;;
55330;SDS011;58851;42.984;20.336;2023-12-20T08:02:23;307.42;;;194.27;;
55330;SDS011;58851;42.984;20.336;2023-12-20T08:04:49;311.05;;;191.98;;
55330;SDS011;58851;42.984;20.336;2023-12-20T08:07:15;313.25;;;201.70;;
55330;SDS011;58851;42.984;20.336;2023-12-20T08:09:40;347.92;;;219.35;;
55330;SDS011;58851;42.984;20.336;2023-12-20T08:12:08;333.00;;;202.38;;
55330;SDS011;58851;42.984;20.336;2023-12-20T08:14:34;330.92;;;204.32;;
55330;SDS011;58851;42.984;20.336;2023-12-20T08:17:00;332.80;;;215.10;;
55330;SDS011;58851;42.984;20.336;2023-12-20T08:19:26;330.00;;;210.13;;
55330;SDS011;58851;42.984;20.336;2023-12-20T08:21:51;342.23;;;216.77;;
55330;SDS011;58851;42.984;20.336;2023-12-20T08:24:17;383.67;;;236.85;;
55330;SDS011;58851;42.984;20.336;2023-12-20T08:26:43;361.95;;;218.68;;
55330;SDS011;58851;42.984;20.336;2023-12-20T08:29:09;354.80;;;224.65;;
55330;SDS011;58851;42.984;20.336;2023-12-20T08:31:34;337.45;;;218.70;;
55330;SDS011;58851;42.984;20.336;2023-12-20T08:34:00;342.48;;;221.10;;
55330;SDS011;58851;42.984;20.336;2023-12-20T08:36:26;360.50;;;240.65;;
55330;SDS011;58851;42.984;20.336;2023-12-20T08:38:52;350.60;;;225.15;;
55330;SDS011;58851;42.984;20.336;2023-12-20T08:41:18;324.40;;;222.15;;
55330;SDS011;58851;42.984;20.336;2023-12-20T08:43:44;313.83;;;207.82;;
55330;SDS011;58851;42.984;20.336;2023-12-20T08:46:10;330.02;;;215.52;;
55330;SDS011;58851;42.984;20.336;2023-12-20T08:48:36;333.85;;;225.18;;
55330;SDS011;58851;42.984;20.336;2023-12-20T08:51:02;357.48;;;244.90;;
55330;SDS011;58851;42.984;20.336;2023-12-20T08:53:29;350.88;;;231.45;;
55330;SDS011;58851;42.984;20.336;2023-12-20T08:55:55;323.90;;;210.07;;
55330;SDS011;58851;42.984;20.336;2023-12-20T08:58:23;324.02;;;214.77;;
55330;SDS011;58851;42.984;20.336;2023-12-20T09:00:48;316.80;;;213.75;;
55330;SDS011;58851;42.984;20.336;2023-12-20T09:03:14;329.73;;;219.98;;
55330;SDS011;58851;42.984;20.336;2023-12-20T09:05:40;321.08;;;217.18;;
55330;SDS011;58851;42.984;20.336;2023-12-20T09:08:06;346.17;;;226.45;;
55330;SDS011;58851;42.984;20.336;2023-12-20T09:10:34;290.73;;;196.00;;
55330;SDS011;58851;42.984;20.336;2023-12-20T09:13:00;282.30;;;187.45;;
55330;SDS011;58851;42.984;20.336;2023-12-20T09:15:27;279.27;;;189.70;;
55330;SDS011;58851;42.984;20.336;2023-12-20T09:17:54;282.42;;;187.02;;
55330;SDS011;58851;42.984;20.336;2023-12-20T09:20:19;305.77;;;199.50;;
55330;SDS011;58851;42.984;20.336;2023-12-20T09:22:46;307.33;;;209.88;;
55330;SDS011;58851;42.984;20.336;2023-12-20T09:25:11;310.90;;;211.43;;
55330;SDS011;58851;42.984;20.336;2023-12-20T09:27:38;305.83;;;212.45;;
55330;SDS011;58851;42.984;20.336;2023-12-20T09:30:04;288.58;;;190.43;;
55330;SDS011;58851;42.984;20.336;2023-12-20T09:32:31;292.38;;;200.23;;
55330;SDS011;58851;42.984;20.336;2023-12-20T09:34:57;283.63;;;187.20;;
55330;SDS011;58851;42.984;20.336;2023-12-20T09:37:26;285.48;;;191.23;;
55330;SDS011;58851;42.984;20.336;2023-12-20T09:39:53;302.92;;;212.43;;
55330;SDS011;58851;42.984;20.336;2023-12-20T09:42:30;321.40;;;225.50;;
55330;SDS011;58851;42.984;20.336;2023-12-20T09:45:14;329.05;;;231.85;;
55330;SDS011;58851;42.984;20.336;2023-12-20T09:47:43;309.75;;;216.30;;
55330;SDS011;58851;42.984;20.336;2023-12-20T09:50:09;337.38;;;228.57;;
55330;SDS011;58851;42.984;20.336;2023-12-20T09:52:36;330.20;;;231.52;;
55330;SDS011;58851;42.984;20.336;2023-12-20T09:55:04;328.80;;;218.77;;
55330;SDS011;58851;42.984;20.336;2023-12-20T09:57:32;324.58;;;225.20;;
55330;SDS011;58851;42.984;20.336;2023-12-20T09:59:58;318.95;;;226.30;;
55330;SDS011;58851;42.984;20.336;2023-12-20T10:02:25;303.85;;;208.55;;
55330;SDS011;58851;42.984;20.336;2023-12-20T10:04:52;293.05;;;200.23;;
55330;SDS011;58851;42.984;20.336;2023-12-20T10:07:19;294.50;;;197.60;;
55330;SDS011;58851;42.984;20.336;2023-12-20T10:09:46;277.63;;;194.52;;
55330;SDS011;58851;42.984;20.336;2023-12-20T10:12:12;274.00;;;193.45;;
55330;SDS011;58851;42.984;20.336;2023-12-20T10:14:41;284.13;;;204.02;;
55330;SDS011;58851;42.984;20.336;2023-12-20T10:17:07;297.13;;;210.93;;
55330;SDS011;58851;42.984;20.336;2023-12-20T10:19:33;313.50;;;221.25;;
55330;SDS011;58851;42.984;20.336;2023-12-20T10:21:59;343.30;;;241.43;;
55330;SDS011;58851;42.984;20.336;2023-12-20T10:24:25;350.67;;;238.75;;
55330;SDS011;58851;42.984;20.336;2023-12-20T10:27:02;334.67;;;241.77;;
55330;SDS011;58851;42.984;20.336;2023-12-20T10:29:35;339.77;;;241.88;;
55330;SDS011;58851;42.984;20.336;2023-12-20T10:34:47;337.42;;;234.38;;
55330;SDS011;58851;42.984;20.336;2023-12-20T10:37:13;354.85;;;255.65;;
55330;SDS011;58851;42.984;20.336;2023-12-20T10:39:38;387.73;;;272.20;;
55330;SDS011;58851;42.984;20.336;2023-12-20T10:42:06;402.13;;;280.67;;
55330;SDS011;58851;42.984;20.336;2023-12-20T10:44:34;402.27;;;279.98;;
55330;SDS011;58851;42.984;20.336;2023-12-20T10:46:59;337.15;;;243.68;;
55330;SDS011;58851;42.984;20.336;2023-12-20T10:49:25;322.60;;;234.98;;
55330;SDS011;58851;42.984;20.336;2023-12-20T10:51:53;313.83;;;232.77;;
55330;SDS011;58851;42.984;20.336;2023-12-20T10:54:22;245.70;;;177.32;;
55330;SDS011;58851;42.984;20.336;2023-12-20T10:56:48;219.15;;;156.07;;
55330;SDS011;58851;42.984;20.336;2023-12-20T10:59:16;210.88;;;150.50;;
55330;SDS011;58851;42.984;20.336;2023-12-20T11:01:45;193.85;;;137.98;;
55330;SDS011;58851;42.984;20.336;2023-12-20T11:04:15;255.93;;;187.50;;
55330;SDS011;58851;42.984;20.336;2023-12-20T11:09:43;332.42;;;250.35;;
55330;SDS011;58851;42.984;20.336;2023-12-20T11:15:28;292.17;;;212.23;;
55330;SDS011;58851;42.984;20.336;2023-12-20T11:17:55;289.83;;;213.75;;
55330;SDS011;58851;42.984;20.336;2023-12-20T11:20:34;271.75;;;200.98;;
55330;SDS011;58851;42.984;20.336;2023-12-20T11:23:10;274.52;;;201.30;;
55330;SDS011;58851;42.984;20.336;2023-12-20T11:25:49;252.85;;;180.57;;
55330;SDS011;58851;42.984;20.336;2023-12-20T11:28:21;237.30;;;176.10;;
55330;SDS011;58851;42.984;20.336;2023-12-20T11:30:50;245.35;;;175.82;;
55330;SDS011;58851;42.984;20.336;2023-12-20T11:33:20;234.93;;;172.95;;
55330;SDS011;58851;42.984;20.336;2023-12-20T11:35:51;235.73;;;165.38;;
55330;SDS011;58851;42.984;20.336;2023-12-20T11:38:17;230.27;;;169.98;;
55330;SDS011;58851;42.984;20.336;2023-12-20T11:40:47;242.13;;;172.73;;
55330;SDS011;58851;42.984;20.336;2023-12-20T11:43:29;247.30;;;178.05;;
55330;SDS011;58851;42.984;20.336;2023-12-20T11:46:10;247.35;;;176.55;;
55330;SDS011;58851;42.984;20.336;2023-12-20T11:48:36;262.50;;;194.13;;
55330;SDS011;58851;42.984;20.336;2023-12-20T11:51:13;252.05;;;188.50;;
55330;SDS011;58851;42.984;20.336;2023-12-20T11:53:42;300.27;;;213.00;;
55330;SDS011;58851;42.984;20.336;2023-12-20T11:56:08;299.10;;;220.73;;
55330;SDS011;58851;42.984;20.336;2023-12-20T11:58:35;284.00;;;211.15;;
55330;SDS011;58851;42.984;20.336;2023-12-20T12:01:01;285.10;;;208.68;;
55330;SDS011;58851;42.984;20.336;2023-12-20T12:03:28;282.60;;;206.05;;
55330;SDS011;58851;42.984;20.336;2023-12-20T12:05:53;285.85;;;209.23;;
55330;SDS011;58851;42.984;20.336;2023-12-20T12:08:19;259.20;;;184.10;;
55330;SDS011;58851;42.984;20.336;2023-12-20T12:10:45;239.45;;;168.55;;
55330;SDS011;58851;42.984;20.336;2023-12-20T12:13:11;234.93;;;167.90;;
55330;SDS011;58851;42.984;20.336;2023-12-20T12:15:39;237.32;;;170.48;;
55330;SDS011;58851;42.984;20.336;2023-12-20T12:18:07;226.77;;;165.77;;
55330;SDS011;58851;42.984;20.336;2023-12-20T12:20:33;225.02;;;165.77;;
55330;SDS011;58851;42.984;20.336;2023-12-20T12:23:03;216.15;;;158.45;;
55330;SDS011;58851;42.984;20.336;2023-12-20T12:25:31;213.18;;;156.07;;
55330;SDS011;58851;42.984;20.336;2023-12-20T12:28:00;221.27;;;159.98;;
55330;SDS011;58851;42.984;20.336;2023-12-20T12:30:26;225.07;;;169.98;;
55330;SDS011;58851;42.984;20.336;2023-12-20T12:32:53;225.07;;;162.18;;
55330;SDS011;58851;42.984;20.336;2023-12-20T12:35:19;227.98;;;165.25;;
55330;SDS011;58851;42.984;20.336;2023-12-20T12:37:45;242.15;;;182.02;;
55330;SDS011;58851;42.984;20.336;2023-12-20T12:40:12;219.60;;;161.52;;
55330;SDS011;58851;42.984;20.336;2023-12-20T12:42:39;278.92;;;206.63;;
55330;SDS011;58851;42.984;20.336;2023-12-20T12:45:06;293.58;;;212.70;;
55330;SDS011;58851;42.984;20.336;2023-12-20T12:47:32;275.42;;;200.70;;
55330;SDS011;58851;42.984;20.336;2023-12-20T12:49:59;278.23;;;203.95;;
55330;SDS011;58851;42.984;20.336;2023-12-20T12:52:26;278.27;;;196.95;;
55330;SDS011;58851;42.984;20.336;2023-12-20T12:54:52;287.48;;;206.15;;
55330;SDS011;58851;42.984;20.336;2023-12-20T12:57:18;288.77;;;202.95;;
55330;SDS011;58851;42.984;20.336;2023-12-20T12:59:45;296.92;;;206.90;;
55330;SDS011;58851;42.984;20.336;2023-12-20T13:02:11;267.52;;;193.55;;
55330;SDS011;58851;42.984;20.336;2023-12-20T13:04:41;270.77;;;197.65;;
55330;SDS011;58851;42.984;20.336;2023-12-20T13:07:08;274.25;;;192.20;;
55330;SDS011;58851;42.984;20.336;2023-12-20T13:09:38;243.02;;;173.75;;
55330;SDS011;58851;42.984;20.336;2023-12-20T13:12:05;258.95;;;186.77;;
55330;SDS011;58851;42.984;20.336;2023-12-20T13:14:32;261.55;;;184.93;;
55330;SDS011;58851;42.984;20.336;2023-12-20T13:17:00;267.58;;;192.77;;
55330;SDS011;58851;42.984;20.336;2023-12-20T13:19:30;269.65;;;198.10;;
55330;SDS011;58851;42.984;20.336;2023-12-20T13:21:56;254.77;;;177.27;;
55330;SDS011;58851;42.984;20.336;2023-12-20T13:24:23;264.20;;;182.02;;
55330;SDS011;58851;42.984;20.336;2023-12-20T13:26:49;261.30;;;175.38;;
55330;SDS011;58851;42.984;20.336;2023-12-20T13:29:14;252.38;;;185.55;;
55330;SDS011;58851;42.984;20.336;2023-12-20T13:31:40;286.75;;;203.85;;
55330;SDS011;58851;42.984;20.336;2023-12-20T13:34:07;308.77;;;216.65;;
55330;SDS011;58851;42.984;20.336;2023-12-20T13:36:32;308.02;;;216.88;;
55330;SDS011;58851;42.984;20.336;2023-12-20T13:38:58;300.52;;;220.88;;
55330;SDS011;58851;42.984;20.336;2023-12-20T13:41:24;339.95;;;239.32;;
55330;SDS011;58851;42.984;20.336;2023-12-20T13:43:50;367.75;;;257.63;;
55330;SDS011;58851;42.984;20.336;2023-12-20T13:46:16;399.98;;;285.13;;
55330;SDS011;58851;42.984;20.336;2023-12-20T13:48:42;415.13;;;298.88;;
55330;SDS011;58851;42.984;20.336;2023-12-20T13:51:08;405.73;;;289.23;;